Time;durP1;ratioP1;P1;durP2;ratioP2;P2;SDS_P1;SDS_P2;PMS_P1;PMS_P2;Temp;Humidity;BMP_temperature;BMP_pressure;BME280_temperature;BME280_humidity;BME280_pressure;Samples;Min_cycle;Max_cycle;Signal;HPM_P1;HPM_P2
2022/10/18 00:02:27;;;;;;;;;;;;;;;13.63;67.31;101877.47;5394238;32;34251;-72
2022/10/18 00:05:29;;;;;;;;;;;;;;;13.63;67.79;101877.47;5369097;32;35062;-71
2022/10/18 00:38:57;;;;;;;;;;;;;;;14.26;64.13;101865.91;5399269;32;36321;-89
2022/10/18 00:41:59;;;;;;;;;;;;;;;14.40;63.35;101855.75;5386245;32;34347;-72
2022/10/18 00:45:14;;;;;;;;;;;;;;;14.54;62.82;101858.84;5397261;32;34368;-71
2022/10/18 00:48:16;;;;;;;;;;;;;;;15.04;60.71;101855.47;5379886;32;45021;-88
2022/10/18 00:51:19;;;;;;;;;;;;;;;14.96;60.73;101846.91;5401049;32;35477;-72
2022/10/18 00:54:20;;;;;;;;;;;;;;;14.34;62.53;101853.31;5382499;32;36155;-72
2022/10/18 00:57:22;;;;;;;;;;;;;;;14.00;64.27;101854.34;5375602;32;34366;-71
2022/10/18 01:00:24;;;;;;;;;;;;;;;13.66;66.40;101857.13;5400730;32;35564;-88
2022/10/18 01:03:26;;;;;;;;;;;;;;;13.69;66.46;101848.22;5386940;32;34158;-89
2022/10/18 01:06:28;;;;;;;;;;;;;;;13.52;67.06;101849.59;5389772;32;34299;-87
2022/10/18 01:09:44;;;;;;;;;;;;;;;13.72;66.67;101845.53;5363074;32;35338;-71
2022/10/18 01:12:55;;;;;;;;;;;;;;;14.29;63.97;101842.88;5382619;32;44791;-87
2022/10/18 01:15:58;;;;;;;;;;;;;;;14.04;64.13;101842.78;5402013;32;34427;-87
2022/10/18 01:19:23;;;;;;;;;;;;;;;13.22;68.17;101831.94;5369639;32;35283;-88
2022/10/18 01:22:45;;;;;;;;;;;;;;;13.30;68.51;101832.59;5388037;32;34162;-87
2022/10/18 01:26:01;;;;;;;;;;;;;;;13.28;68.96;101824.72;5370223;32;44742;-87
2022/10/18 01:29:21;;;;;;;;;;;;;;;14.21;64.41;101823.72;5376687;32;35943;-71
2022/10/18 01:32:24;;;;;;;;;;;;;;;13.96;64.81;101807.75;5395967;32;34756;-87
2022/10/18 01:35:29;;;;;;;;;;;;;;;13.62;66.44;101820.25;5376831;32;34187;-72
2022/10/18 01:38:31;;;;;;;;;;;;;;;13.32;67.61;101817.56;5394809;32;34566;-87
2022/10/18 01:41:33;;;;;;;;;;;;;;;14.12;64.48;101817.88;5374224;32;34192;-71
2022/10/18 01:44:35;;;;;;;;;;;;;;;14.34;63.44;101808.34;5386083;32;34957;-87
2022/10/18 01:47:36;;;;;;;;;;;;;;;14.37;63.22;101810.91;5390970;32;35061;-72
2022/10/18 01:50:38;;;;;;;;;;;;;;;14.17;63.72;101800.06;5384565;32;34988;-71
2022/10/18 01:53:40;;;;;;;;;;;;;;;14.30;63.43;101802.31;5397291;32;45571;-88
2022/10/18 01:56:50;;;;;;;;;;;;;;;14.32;62.80;101800.47;5385455;32;35446;-88
2022/10/18 01:59:59;;;;;;;;;;;;;;;14.08;64.08;101801.25;5395379;32;35331;-72
2022/10/18 02:03:06;;;;;;;;;;;;;;;13.72;65.71;101800.59;5371502;32;34187;-87
2022/10/18 02:06:26;;;;;;;;;;;;;;;13.97;64.83;101796.28;5388935;32;34874;-70
2022/10/18 02:09:38;;;;;;;;;;;;;;;13.97;64.60;101795.41;5374946;32;34358;-86
2022/10/18 02:12:40;;;;;;;;;;;;;;;14.17;63.47;101790.41;5381349;32;37168;-86
2022/10/18 02:15:43;;;;;;;;;;;;;;;13.62;65.36;101783.28;5382308;32;34708;-71
2022/10/18 02:18:56;;;;;;;;;;;;;;;14.21;63.53;101785.84;5368173;32;34287;-72
2022/10/18 02:21:58;;;;;;;;;;;;;;;14.20;63.02;101792.06;5383589;32;34523;-80
2022/10/18 02:25:01;;;;;;;;;;;;;;;13.69;65.27;101796.25;5397408;32;34081;-73
2022/10/18 02:28:03;;;;;;;;;;;;;;;13.90;64.67;101796.50;5385334;32;34244;-88
2022/10/18 02:31:08;;;;;;;;;;;;;;;13.73;65.55;101791.75;5399252;32;34169;-72
2022/10/18 02:34:18;;;;;;;;;;;;;;;14.02;64.00;101798.78;5376306;32;44648;-72
2022/10/18 02:37:20;;;;;;;;;;;;;;;14.35;62.67;101794.19;5393985;32;36748;-87
2022/10/18 02:40:22;;;;;;;;;;;;;;;14.39;62.02;101790.56;5387675;32;34645;-71
2022/10/18 02:43:24;;;;;;;;;;;;;;;14.00;63.80;101792.69;5388377;32;34710;-81
2022/10/18 02:46:26;;;;;;;;;;;;;;;13.83;64.32;101791.41;5389922;32;34131;-72
2022/10/18 02:49:32;;;;;;;;;;;;;;;13.24;67.51;101791.38;5380786;32;34827;-88
2022/10/18 02:52:34;;;;;;;;;;;;;;;13.62;65.99;101793.84;5395042;32;34909;-72
2022/10/18 02:55:36;;;;;;;;;;;;;;;14.01;63.87;101794.41;5382882;32;34793;-72
2022/10/18 02:58:38;;;;;;;;;;;;;;;13.61;65.43;101790.34;5391335;32;34772;-86
2022/10/18 03:01:40;;;;;;;;;;;;;;;13.60;65.59;101793.03;5389954;32;43168;-88
2022/10/18 03:04:42;;;;;;;;;;;;;;;13.26;66.80;101788.69;5382259;32;35396;-88
2022/10/18 03:07:44;;;;;;;;;;;;;;;12.95;67.82;101792.16;5347132;32;34801;-72
2022/10/18 03:10:45;;;;;;;;;;;;;;;13.13;67.94;101785.50;5361019;32;35090;-87
2022/10/18 03:13:49;;;;;;;;;;;;;;;13.92;64.36;101797.34;5407108;32;34684;-88
2022/10/18 03:16:51;;;;;;;;;;;;;;;13.09;66.41;101797.06;5380508;32;35062;-72
2022/10/18 03:19:53;;;;;;;;;;;;;;;13.24;66.84;101807.22;5386656;32;34691;-88
2022/10/18 03:22:54;;;;;;;;;;;;;;;12.61;69.18;101807.97;5392639;32;34384;-71
2022/10/18 03:25:56;;;;;;;;;;;;;;;12.37;70.40;101816.50;5380991;32;33420;-71
2022/10/18 03:28:58;;;;;;;;;;;;;;;11.96;72.72;101814.78;5397634;32;35284;-88
2022/10/18 03:32:00;;;;;;;;;;;;;;;11.80;73.62;101815.12;5379055;32;34527;-88
2022/10/18 03:35:02;;;;;;;;;;;;;;;12.89;68.51;101810.78;5392593;32;34206;-88
2022/10/18 03:38:04;;;;;;;;;;;;;;;13.17;66.95;101813.56;5371967;32;34938;-88
2022/10/18 03:41:06;;;;;;;;;;;;;;;13.55;64.75;101807.22;5376772;32;35156;-72
2022/10/18 03:44:08;;;;;;;;;;;;;;;13.52;65.23;101817.00;5389592;32;34880;-72
2022/10/18 03:47:10;;;;;;;;;;;;;;;13.67;63.85;101816.56;5381386;32;44826;-72
2022/10/18 03:50:12;;;;;;;;;;;;;;;13.86;63.28;101806.34;5395554;32;34211;-71
2022/10/18 03:53:14;;;;;;;;;;;;;;;13.76;63.34;101807.50;5381190;32;35380;-71
2022/10/18 03:56:16;;;;;;;;;;;;;;;13.54;64.29;101817.84;5400948;32;34598;-88
2022/10/18 03:59:18;;;;;;;;;;;;;;;13.31;64.89;101813.19;5377346;32;35884;-72
2022/10/18 04:02:19;;;;;;;;;;;;;;;12.58;67.86;101815.97;5386687;32;35182;-72
2022/10/18 04:05:23;;;;;;;;;;;;;;;12.00;70.93;101812.06;5386649;32;34322;-88
2022/10/18 04:08:25;;;;;;;;;;;;;;;12.81;68.10;101812.75;5376356;32;34256;-71
2022/10/18 04:11:26;;;;;;;;;;;;;;;12.82;68.44;101809.22;5390031;32;35526;-71
2022/10/18 04:14:28;;;;;;;;;;;;;;;12.18;70.04;101808.16;5386254;32;34194;-71
2022/10/18 04:17:30;;;;;;;;;;;;;;;12.19;71.27;101802.84;5396086;32;35354;-86
2022/10/18 04:20:32;;;;;;;;;;;;;;;12.25;70.18;101804.47;5368649;32;35463;-72
2022/10/18 04:23:34;;;;;;;;;;;;;;;12.64;68.75;101801.78;5374857;32;34214;-88
2022/10/18 04:26:39;;;;;;;;;;;;;;;12.53;69.05;101796.75;5393089;32;35487;-87
2022/10/18 04:29:41;;;;;;;;;;;;;;;12.28;70.28;101798.25;5379394;32;44486;-88
2022/10/18 04:32:43;;;;;;;;;;;;;;;12.05;71.20;101791.75;5393953;32;35074;-88
2022/10/18 04:35:45;;;;;;;;;;;;;;;12.40;69.95;101796.19;5382367;32;36083;-71
2022/10/18 04:38:47;;;;;;;;;;;;;;;12.34;70.23;101798.09;5397498;32;34808;-71
2022/10/18 04:41:48;;;;;;;;;;;;;;;12.57;68.96;101792.28;5382515;32;35651;-72
2022/10/18 04:44:50;;;;;;;;;;;;;;;11.94;71.59;101793.75;5385440;32;34331;-87
2022/10/18 04:47:52;;;;;;;;;;;;;;;12.31;70.18;101791.16;5393523;32;35644;-79
2022/10/18 04:50:54;;;;;;;;;;;;;;;13.25;66.08;101779.03;5382423;32;34903;-71
2022/10/18 04:53:56;;;;;;;;;;;;;;;12.56;68.64;101785.25;5393822;32;36658;-79
2022/10/18 04:56:58;;;;;;;;;;;;;;;12.50;69.73;101774.88;5383953;32;35192;-87
2022/10/18 05:00:00;;;;;;;;;;;;;;;12.78;67.71;101772.41;5389201;32;35200;-72
2022/10/18 05:03:02;;;;;;;;;;;;;;;13.16;66.39;101774.00;5377465;32;35350;-88
2022/10/18 05:06:04;;;;;;;;;;;;;;;13.04;66.74;101769.91;5386264;32;36732;-88
2022/10/18 05:09:06;;;;;;;;;;;;;;;13.30;64.63;101763.94;5358207;32;35497;-87
2022/10/18 05:12:08;;;;;;;;;;;;;;;13.25;65.16;101779.03;5383805;32;36064;-89
2022/10/18 05:15:10;;;;;;;;;;;;;;;13.01;65.60;101770.88;5394595;32;45627;-71
2022/10/18 05:18:12;;;;;;;;;;;;;;;13.13;65.97;101782.00;5381453;32;34285;-87
2022/10/18 05:21:14;;;;;;;;;;;;;;;13.53;63.82;101777.38;5399371;32;36236;-87
2022/10/18 05:24:16;;;;;;;;;;;;;;;13.34;64.37;101784.09;5377857;32;35299;-72
2022/10/18 05:27:18;;;;;;;;;;;;;;;12.83;66.40;101787.19;5385026;32;34351;-88
2022/10/18 05:30:20;;;;;;;;;;;;;;;12.87;66.55;101786.19;5394497;32;34234;-78
2022/10/18 05:33:22;;;;;;;;;;;;;;;12.55;68.49;101783.53;5378809;32;34321;-80
2022/10/18 05:36:25;;;;;;;;;;;;;;;13.14;66.19;101781.97;5393471;32;36898;-81
2022/10/18 05:39:26;;;;;;;;;;;;;;;12.54;67.77;101784.44;5380224;32;34157;-74
2022/10/18 05:42:28;;;;;;;;;;;;;;;13.18;65.45;101788.00;5394570;32;34303;-80
2022/10/18 05:45:31;;;;;;;;;;;;;;;13.71;63.40;101781.22;5360841;32;35002;-72
2022/10/18 05:48:33;;;;;;;;;;;;;;;13.34;64.40;101781.44;5385526;32;34796;-79
2022/10/18 05:51:35;;;;;;;;;;;;;;;13.42;64.57;101779.44;5378995;32;33412;-79
2022/10/18 05:54:37;;;;;;;;;;;;;;;13.61;63.36;101784.19;5377201;32;35336;-74
2022/10/18 05:57:39;;;;;;;;;;;;;;;14.23;61.08;101774.34;5395446;32;34268;-71
2022/10/18 06:00:41;;;;;;;;;;;;;;;14.04;61.91;101781.97;5364199;32;44068;-72
2022/10/18 06:03:42;;;;;;;;;;;;;;;14.09;61.88;101787.09;5395392;32;35744;-70
2022/10/18 06:06:44;;;;;;;;;;;;;;;14.50;60.35;101780.53;5376255;32;34306;-70
2022/10/18 06:09:46;;;;;;;;;;;;;;;15.37;58.45;101779.22;5351853;32;35518;-72
2022/10/18 06:12:49;;;;;;;;;;;;;;;15.73;56.19;101781.47;5396537;32;34225;-79
2022/10/18 06:15:54;;;;;;;;;;;;;;;16.95;52.65;101779.97;5378217;32;36273;-70
2022/10/18 06:18:56;;;;;;;;;;;;;;;17.13;51.88;101770.34;5389016;32;33919;-73
2022/10/18 06:21:58;;;;;;;;;;;;;;;17.54;50.55;101772.91;5379470;32;34083;-73
2022/10/18 06:24:59;;;;;;;;;;;;;;;17.52;50.68;101788.06;5387763;32;34011;-73
2022/10/18 06:28:03;;;;;;;;;;;;;;;18.19;48.85;101784.03;5368280;32;34186;-68
2022/10/18 06:31:09;;;;;;;;;;;;;;;18.50;48.17;101784.25;5370846;32;34202;-69
2022/10/18 06:34:11;;;;;;;;;;;;;;;18.72;47.20;101792.03;5391035;32;44926;-70
2022/10/18 06:37:13;;;;;;;;;;;;;;;18.93;46.58;101784.75;5378359;32;34717;-68
2022/10/18 06:40:15;;;;;;;;;;;;;;;18.23;48.33;101797.13;5393102;32;34214;-70
2022/10/18 06:43:17;;;;;;;;;;;;;;;19.33;46.10;101788.84;5365717;32;33792;-71
2022/10/18 06:46:22;;;;;;;;;;;;;;;18.52;47.64;101789.50;5386405;32;33857;-73
2022/10/18 06:49:24;;;;;;;;;;;;;;;19.79;44.90;101780.19;5378551;32;37052;-76
2022/10/18 06:52:26;;;;;;;;;;;;;;;21.15;41.64;101766.88;5378485;32;34275;-69
2022/10/18 06:55:31;;;;;;;;;;;;;;;21.47;40.82;101772.94;5391135;32;34425;-66
2022/10/18 06:58:34;;;;;;;;;;;;;;;21.34;40.65;101780.84;5378151;32;34190;-74
2022/10/18 07:01:36;;;;;;;;;;;;;;;21.47;40.73;101787.16;5366414;32;35818;-70
2022/10/18 07:04:40;;;;;;;;;;;;;;;21.89;39.70;101788.03;5366015;32;45127;-74
2022/10/18 07:07:43;;;;;;;;;;;;;;;23.07;37.77;101780.22;5379252;32;35422;-75
2022/10/18 07:10:51;;;;;;;;;;;;;;;22.21;38.99;101787.81;5374883;32;34575;-76
2022/10/18 07:13:59;;;;;;;;;;;;;;;22.36;38.46;101787.66;5381969;32;34132;-77
2022/10/18 07:17:01;;;;;;;;;;;;;;;22.44;37.45;101789.81;5387518;32;34569;-72
2022/10/18 07:20:03;;;;;;;;;;;;;;;21.03;40.75;101795.22;5372546;32;34909;-75
2022/10/18 07:23:07;;;;;;;;;;;;;;;19.51;44.55;101786.97;5391495;32;35064;-74
2022/10/18 07:26:10;;;;;;;;;;;;;;;19.49;44.48;101784.41;5376210;32;34365;-86
2022/10/18 07:29:13;;;;;;;;;;;;;;;20.86;40.38;101774.84;5367545;32;46867;-80
2022/10/18 07:32:14;;;;;;;;;;;;;;;19.72;42.21;101777.00;5376256;32;35160;-80
2022/10/18 07:35:16;;;;;;;;;;;;;;;18.10;47.66;101782.72;5382971;32;34215;-81
2022/10/18 07:38:18;;;;;;;;;;;;;;;17.29;49.55;101778.47;5390170;32;35632;-79
2022/10/18 07:41:20;;;;;;;;;;;;;;;16.82;51.50;101769.97;5364101;32;34349;-77
2022/10/18 07:44:23;;;;;;;;;;;;;;;16.76;51.70;101773.75;5391266;32;33824;-76
2022/10/18 07:47:24;;;;;;;;;;;;;;;17.85;47.94;101783.88;5378350;32;35000;-77
2022/10/18 07:50:28;;;;;;;;;;;;;;;16.21;52.16;101779.50;5377350;32;34663;-74
2022/10/18 07:53:30;;;;;;;;;;;;;;;16.68;50.91;101775.81;5381948;32;32899;-73
2022/10/18 07:56:32;;;;;;;;;;;;;;;16.72;50.84;101773.00;5375024;32;35395;-78
2022/10/18 07:59:35;;;;;;;;;;;;;;;15.87;53.06;101768.53;5385385;32;34195;-77
2022/10/18 08:02:38;;;;;;;;;;;;;;;16.78;50.24;101762.13;5379271;32;34417;-77
2022/10/18 08:05:40;;;;;;;;;;;;;;;16.26;49.58;101747.50;5392801;32;38950;-77
2022/10/18 08:08:42;;;;;;;;;;;;;;;16.57;48.13;101755.03;5364944;32;34921;-73
2022/10/18 08:11:44;;;;;;;;;;;;;;;16.82;48.45;101762.00;5373117;32;34352;-76
2022/10/18 08:14:46;;;;;;;;;;;;;;;18.04;45.21;101753.75;5388384;32;34707;-68
2022/10/18 08:17:48;;;;;;;;;;;;;;;18.23;44.66;101749.25;5379164;32;35847;-67
2022/10/18 08:20:49;;;;;;;;;;;;;;;18.16;45.04;101736.28;5382541;32;34272;-70
2022/10/18 08:23:52;;;;;;;;;;;;;;;17.35;46.74;101745.47;5378210;32;36999;-71
2022/10/18 08:26:54;;;;;;;;;;;;;;;16.94;47.52;101743.72;5398300;32;34263;-70
2022/10/18 08:29:58;;;;;;;;;;;;;;;16.93;48.16;101739.31;5386468;32;34134;-71
2022/10/18 08:33:01;;;;;;;;;;;;;;;17.12;47.66;101725.22;5377100;32;34224;-74
2022/10/18 08:36:06;;;;;;;;;;;;;;;17.49;46.83;101727.06;5394589;32;34362;-70
2022/10/18 08:39:08;;;;;;;;;;;;;;;17.69;46.83;101729.66;5373840;32;35446;-67
2022/10/18 08:42:19;;;;;;;;;;;;;;;17.86;45.77;101719.09;5397683;32;43659;-71
2022/10/18 08:45:20;;;;;;;;;;;;;;;17.68;45.82;101713.78;5381158;32;34465;-74
2022/10/18 08:48:46;;;;;;;;;;;;;;;18.03;43.30;101707.66;5387702;32;45017;-75
2022/10/18 08:51:48;;;;;;;;;;;;;;;18.03;41.50;101705.00;5381359;32;35636;-72
2022/10/18 08:55:09;;;;;;;;;;;;;;;18.70;39.64;101700.72;5354278;32;34340;-73
2022/10/18 08:58:17;;;;;;;;;;;;;;;18.48;39.80;101692.94;5395496;32;44556;-70
2022/10/18 09:01:37;;;;;;;;;;;;;;;17.97;40.86;101692.00;5382369;32;34194;-74
2022/10/18 09:04:39;;;;;;;;;;;;;;;18.26;40.58;101690.53;5357410;32;35445;-73
2022/10/18 09:07:42;;;;;;;;;;;;;;;18.24;41.13;101684.44;5380253;32;46078;-69
2022/10/18 09:11:20;;;;;;;;;;;;;;;18.14;40.79;101681.34;5374347;32;34274;-68
2022/10/18 09:14:22;;;;;;;;;;;;;;;18.95;39.00;101676.31;5333710;32;35253;-85
2022/10/18 09:17:47;;;;;;;;;;;;;;;18.91;38.87;101675.59;5385431;32;34419;-83
2022/10/18 09:21:12;;;;;;;;;;;;;;;18.40;39.91;101666.72;5366766;32;44532;-75
2022/10/18 09:24:17;;;;;;;;;;;;;;;18.92;38.76;101671.13;5355024;32;45248;-77
2022/10/18 09:27:21;;;;;;;;;;;;;;;19.49;36.81;101659.09;5379827;32;35478;-77
2022/10/18 09:30:32;;;;;;;;;;;;;;;18.97;38.49;101665.56;5396670;32;36366;-72
2022/10/18 09:33:38;;;;;;;;;;;;;;;18.49;39.93;101660.09;5376347;32;36062;-79
2022/10/18 09:36:40;;;;;;;;;;;;;;;18.41;40.19;101655.13;5388159;32;44654;-74
2022/10/18 09:39:42;;;;;;;;;;;;;;;18.58;38.35;101653.41;5388493;32;35704;-75
2022/10/18 09:42:50;;;;;;;;;;;;;;;19.96;35.42;101642.19;5380828;32;34399;-82
2022/10/18 09:45:52;;;;;;;;;;;;;;;20.23;34.84;101641.53;5388982;32;34910;-80
2022/10/18 09:48:59;;;;;;;;;;;;;;;20.06;35.26;101639.00;5380890;32;34463;-83
2022/10/18 09:52:03;;;;;;;;;;;;;;;19.88;36.01;101633.78;5386880;32;34187;-76
2022/10/18 09:55:07;;;;;;;;;;;;;;;19.82;36.44;101628.78;5362399;32;34886;-78
2022/10/18 09:58:09;;;;;;;;;;;;;;;20.52;34.95;101627.28;5390013;32;34126;-77
2022/10/18 10:01:12;;;;;;;;;;;;;;;19.51;36.46;101629.66;5393948;32;46775;-76
2022/10/18 10:04:14;;;;;;;;;;;;;;;19.81;36.35;101624.41;5356061;32;35494;-81
2022/10/18 10:07:20;;;;;;;;;;;;;;;20.25;34.77;101615.59;5397943;32;34395;-83
2022/10/18 10:10:23;;;;;;;;;;;;;;;23.77;29.46;101600.75;5364506;32;34693;-84
2022/10/18 10:13:26;;;;;;;;;;;;;;;23.06;30.18;101599.72;5386486;32;34270;-75
2022/10/18 10:16:28;;;;;;;;;;;;;;;24.32;27.46;101594.66;5390462;32;34852;-78
2022/10/18 10:19:35;;;;;;;;;;;;;;;23.35;28.28;101586.84;5380450;32;33956;-83
2022/10/18 10:22:38;;;;;;;;;;;;;;;22.16;30.73;101590.00;5397918;32;34210;-87
2022/10/18 10:25:40;;;;;;;;;;;;;;;21.79;29.69;101584.41;5382046;32;43560;-82
2022/10/18 10:28:45;;;;;;;;;;;;;;;22.32;29.21;101576.37;5389233;32;34040;-76
2022/10/18 10:31:47;;;;;;;;;;;;;;;22.18;29.90;101577.34;5386253;32;35594;-82
2022/10/18 10:34:49;;;;;;;;;;;;;;;21.27;32.05;101570.94;5363983;32;34222;-84
2022/10/18 10:37:52;;;;;;;;;;;;;;;21.85;30.91;101559.06;5393965;32;34304;-72
2022/10/18 10:40:54;;;;;;;;;;;;;;;21.46;31.68;101559.91;5377915;32;35483;-74
2022/10/18 10:43:56;;;;;;;;;;;;;;;22.32;30.05;101550.44;5391977;32;34937;-77
2022/10/18 10:46:58;;;;;;;;;;;;;;;22.55;29.47;101550.66;5381199;32;35475;-71
2022/10/18 10:50:07;;;;;;;;;;;;;;;22.66;28.47;101542.69;5378260;32;34194;-79
2022/10/18 10:53:42;;;;;;;;;;;;;;;22.78;28.82;101541.81;5377875;32;35497;-79
2022/10/18 10:57:02;;;;;;;;;;;;;;;21.20;31.48;101537.53;5347071;32;34310;-79
2022/10/18 11:00:04;;;;;;;;;;;;;;;22.61;29.01;101539.53;5390835;32;36041;-78
2022/10/18 11:03:10;;;;;;;;;;;;;;;22.38;29.34;101527.75;5367434;32;34685;-79
2022/10/18 11:06:41;;;;;;;;;;;;;;;22.40;29.20;101531.16;5377588;32;32997;-75
2022/10/18 11:09:46;;;;;;;;;;;;;;;22.07;30.04;101521.81;5367784;32;46035;-74
2022/10/18 11:12:53;;;;;;;;;;;;;;;21.97;30.58;101520.75;5363592;32;34252;-80
2022/10/18 11:15:59;;;;;;;;;;;;;;;22.67;29.43;101515.81;5393085;32;35216;-84
2022/10/18 11:19:09;;;;;;;;;;;;;;;23.74;28.28;101505.19;5371101;32;34542;-79
2022/10/18 11:22:15;;;;;;;;;;;;;;;23.11;29.20;101501.00;5385411;32;44599;-80
2022/10/18 11:25:17;;;;;;;;;;;;;;;25.92;25.69;101488.38;5375078;32;34432;-80
2022/10/18 11:28:33;;;;;;;;;;;;;;;27.41;23.14;101486.72;5382076;32;33504;-82
2022/10/18 11:31:40;;;;;;;;;;;;;;;26.79;24.31;101486.03;5394054;32;36190;-82
2022/10/18 11:35:01;;;;;;;;;;;;;;;26.93;23.45;101477.56;5365559;32;43035;-76
2022/10/18 11:38:34;;;;;;;;;;;;;;;24.16;26.85;101478.66;5375423;32;34423;-74
2022/10/18 11:41:41;;;;;;;;;;;;;;;24.46;27.27;101470.00;5382937;32;35335;-80
2022/10/18 11:44:49;;;;;;;;;;;;;;;23.27;28.14;101473.91;5369035;32;45417;-81
2022/10/18 11:47:54;;;;;;;;;;;;;;;22.54;29.60;101473.91;5387050;32;34143;-82
2022/10/18 11:51:12;;;;;;;;;;;;;;;22.62;29.66;101468.88;5365894;32;34402;-84
2022/10/18 11:54:32;;;;;;;;;;;;;;;23.35;28.62;101460.75;5377629;32;44819;-89
2022/10/18 11:57:34;;;;;;;;;;;;;;;22.97;28.54;101443.03;5388131;32;34374;-81
2022/10/18 12:00:40;;;;;;;;;;;;;;;22.91;29.05;101446.19;5379217;32;35890;-73
2022/10/18 12:04:00;;;;;;;;;;;;;;;23.25;28.60;101432.94;5387019;32;44921;-81
2022/10/18 12:07:03;;;;;;;;;;;;;;;23.08;29.35;101428.00;5380259;32;35904;-78
2022/10/18 12:10:06;;;;;;;;;;;;;;;23.35;28.42;101433.09;5347419;32;34137;-83
2022/10/18 12:13:11;;;;;;;;;;;;;;;23.00;29.26;101428.56;5390593;32;35435;-78
2022/10/18 12:16:13;;;;;;;;;;;;;;;22.70;29.99;101421.78;5379462;32;45127;-78
2022/10/18 12:19:21;;;;;;;;;;;;;;;22.54;29.98;101415.88;5391166;32;35485;-84
2022/10/18 12:22:31;;;;;;;;;;;;;;;22.60;29.61;101415.38;5376382;32;33268;-81
2022/10/18 12:25:36;;;;;;;;;;;;;;;23.51;28.55;101406.81;5376263;32;34116;-87
2022/10/18 12:28:44;;;;;;;;;;;;;;;23.42;28.20;101399.44;5355208;32;34438;-86
2022/10/18 12:31:47;;;;;;;;;;;;;;;22.01;30.66;101407.13;5377665;32;44480;-80
2022/10/18 12:34:51;;;;;;;;;;;;;;;22.65;29.65;101399.84;5384380;32;35578;-81
2022/10/18 12:38:12;;;;;;;;;;;;;;;22.57;29.50;101387.97;5361344;32;34395;-82
2022/10/18 12:41:40;;;;;;;;;;;;;;;23.07;28.94;101381.56;5392812;32;44499;-88
2022/10/18 12:44:42;;;;;;;;;;;;;;;23.68;27.99;101376.84;5376734;32;44902;-84
2022/10/18 12:47:45;;;;;;;;;;;;;;;24.72;26.06;101365.75;5382941;32;34372;-75
2022/10/18 12:50:47;;;;;;;;;;;;;;;24.89;25.91;101352.75;5392858;32;34571;-92
2022/10/18 12:53:52;;;;;;;;;;;;;;;24.37;26.68;101359.75;5373778;32;34716;-83
2022/10/18 12:56:54;;;;;;;;;;;;;;;25.68;24.82;101356.69;5395389;32;34238;-76
2022/10/18 12:59:56;;;;;;;;;;;;;;;24.99;25.46;101341.09;5352063;32;34066;-79
2022/10/18 13:03:18;;;;;;;;;;;;;;;25.79;23.92;101342.31;5382020;32;34562;-80
2022/10/18 13:06:21;;;;;;;;;;;;;;;26.58;22.65;101327.06;5365858;32;34595;-76
2022/10/18 13:09:24;;;;;;;;;;;;;;;29.09;19.99;101327.88;5372326;32;36827;-80
2022/10/18 13:12:25;;;;;;;;;;;;;;;30.95;18.37;101311.69;5396867;32;34530;-77
2022/10/18 13:15:46;;;;;;;;;;;;;;;33.77;15.31;101312.22;5383090;32;35273;-76
2022/10/18 13:18:48;;;;;;;;;;;;;;;34.38;14.89;101301.84;5391269;32;44354;-82
2022/10/18 13:22:08;;;;;;;;;;;;;;;33.93;14.88;101304.69;5393363;32;34299;-83
2022/10/18 13:25:24;;;;;;;;;;;;;;;34.26;14.24;101300.66;5386225;32;44814;-93
2022/10/18 13:28:33;;;;;;;;;;;;;;;33.35;14.89;101303.63;5405970;32;34293;-83
2022/10/18 13:31:47;;;;;;;;;;;;;;;35.47;13.32;101299.66;5384248;32;34266;-83
2022/10/18 13:34:50;;;;;;;;;;;;;;;37.98;11.26;101285.38;5386633;32;36794;-84
2022/10/18 13:37:58;;;;;;;;;;;;;;;38.20;10.94;101281.25;5397832;32;35606;-81
2022/10/18 13:41:00;;;;;;;;;;;;;;;37.46;11.13;101298.19;5380142;32;34207;-89
2022/10/18 13:44:10;;;;;;;;;;;;;;;34.07;13.56;101296.66;5397912;32;34053;-77
2022/10/18 13:47:13;;;;;;;;;;;;;;;31.14;16.29;101305.91;5384411;32;45860;-79
2022/10/18 13:50:30;;;;;;;;;;;;;;;29.16;18.48;101311.87;5394422;32;34455;-82
2022/10/18 13:53:38;;;;;;;;;;;;;;;27.06;20.73;101312.75;5396064;32;36083;-78
2022/10/18 13:56:46;;;;;;;;;;;;;;;26.92;21.06;101310.47;5379860;32;44896;-70
2022/10/18 13:59:51;;;;;;;;;;;;;;;24.45;23.88;101306.22;5401880;32;36420;-75
2022/10/18 14:02:56;;;;;;;;;;;;;;;23.47;25.71;101314.09;5388246;32;34612;-78
2022/10/18 14:06:05;;;;;;;;;;;;;;;22.91;26.79;101306.78;5397554;32;35821;-90
2022/10/18 14:09:20;;;;;;;;;;;;;;;22.78;27.43;101299.78;5355538;32;34890;-80
2022/10/18 14:12:43;;;;;;;;;;;;;;;22.75;27.27;101300.03;5380478;32;35894;-77
2022/10/18 14:15:46;;;;;;;;;;;;;;;22.97;26.98;101297.44;5371540;32;35469;-90
2022/10/18 14:18:48;;;;;;;;;;;;;;;23.24;27.17;101286.38;5376808;32;34625;-90
2022/10/18 14:21:52;;;;;;;;;;;;;;;23.65;26.64;101283.16;5390274;32;36036;-93
2022/10/18 14:24:55;;;;;;;;;;;;;;;23.40;26.41;101286.06;5372563;32;35514;-79
2022/10/18 14:28:13;;;;;;;;;;;;;;;22.86;27.46;101292.91;5383232;32;34452;-90
2022/10/18 14:31:16;;;;;;;;;;;;;;;22.16;28.92;101282.94;5389221;32;44881;-79
2022/10/18 14:34:18;;;;;;;;;;;;;;;22.66;28.46;101286.31;5375928;32;34173;-79
2022/10/18 14:37:33;;;;;;;;;;;;;;;23.45;27.09;101274.00;5403588;32;35636;-91
2022/10/18 14:40:38;;;;;;;;;;;;;;;23.39;26.97;101268.25;5380298;32;35415;-88
2022/10/18 14:43:40;;;;;;;;;;;;;;;22.98;28.20;101275.00;5384241;32;46454;-80
2022/10/18 14:46:42;;;;;;;;;;;;;;;23.03;27.79;101267.47;5387180;32;35529;-80
2022/10/18 14:49:44;;;;;;;;;;;;;;;22.66;28.39;101259.53;5383591;32;34300;-79
2022/10/18 14:52:47;;;;;;;;;;;;;;;22.06;28.96;101251.56;5401359;32;34858;-78
2022/10/18 14:55:52;;;;;;;;;;;;;;;21.90;29.67;101260.72;5382078;32;35061;-89
2022/10/18 14:58:59;;;;;;;;;;;;;;;22.19;29.45;101254.22;5385138;32;34534;-89
2022/10/18 15:02:03;;;;;;;;;;;;;;;22.52;28.34;101246.34;5374367;32;35141;-80
2022/10/18 15:05:05;;;;;;;;;;;;;;;22.33;28.93;101236.16;5374339;32;35310;-78
2022/10/18 15:08:07;;;;;;;;;;;;;;;21.70;29.85;101239.03;5382007;32;34726;-79
2022/10/18 15:11:09;;;;;;;;;;;;;;;21.72;30.23;101237.97;5370924;32;36074;-89
2022/10/18 15:14:18;;;;;;;;;;;;;;;22.65;28.92;101235.53;5383288;32;45273;-78
2022/10/18 15:17:22;;;;;;;;;;;;;;;22.77;28.80;101239.12;5362541;32;35034;-89
2022/10/18 15:20:30;;;;;;;;;;;;;;;22.36;29.26;101230.59;5386980;32;34194;-79
2022/10/18 15:23:32;;;;;;;;;;;;;;;22.06;30.15;101233.69;5383335;32;35447;-89
2022/10/18 15:26:34;;;;;;;;;;;;;;;22.75;28.88;101225.00;5382344;32;35717;-90
2022/10/18 15:29:36;;;;;;;;;;;;;;;22.57;29.32;101221.88;5395052;32;34272;-89
2022/10/18 15:32:45;;;;;;;;;;;;;;;21.88;30.60;101221.66;5370769;32;35511;-90
2022/10/18 15:35:47;;;;;;;;;;;;;;;22.49;29.56;101225.16;5394247;32;46430;-80
2022/10/18 15:38:48;;;;;;;;;;;;;;;22.63;29.13;101227.63;5386502;32;36293;-79
2022/10/18 15:41:55;;;;;;;;;;;;;;;22.21;30.26;101226.34;5382728;32;35080;-89
2022/10/18 15:44:57;;;;;;;;;;;;;;;22.42;29.68;101218.56;5381058;32;34301;-90
2022/10/18 15:47:58;;;;;;;;;;;;;;;21.98;31.04;101222.69;5384030;32;35167;-88
2022/10/18 15:51:05;;;;;;;;;;;;;;;22.10;30.93;101223.66;5403462;32;36424;-90
2022/10/18 15:54:09;;;;;;;;;;;;;;;22.29;30.28;101220.44;5383723;32;34024;-79
2022/10/18 15:57:11;;;;;;;;;;;;;;;22.35;30.36;101211.97;5387184;32;44358;-89
2022/10/18 16:00:16;;;;;;;;;;;;;;;22.10;30.80;101212.94;5380898;32;35007;-89
2022/10/18 16:03:18;;;;;;;;;;;;;;;22.17;31.59;101216.87;5384280;32;35503;-78
2022/10/18 16:06:20;;;;;;;;;;;;;;;21.74;32.52;101217.31;5396187;32;34631;-79
2022/10/18 16:09:22;;;;;;;;;;;;;;;21.49;33.01;101212.00;5362050;32;35692;-88
2022/10/18 16:12:24;;;;;;;;;;;;;;;21.39;34.04;101203.81;5398753;32;34252;-84
2022/10/18 16:15:26;;;;;;;;;;;;;;;21.10;34.50;101205.84;5387476;32;35271;-79
2022/10/18 16:18:28;;;;;;;;;;;;;;;21.16;34.46;101202.72;5397577;32;35393;-88
2022/10/18 16:21:34;;;;;;;;;;;;;;;21.18;34.95;101213.31;5373022;32;34211;-78